sensor_id;sensor_type;location;lat;lon;timestamp;P1;durP1;ratioP1;P2;durP2;ratioP2
42066;SDS011;27734;47.028;28.820;2022-10-04T00:01:09;3.27;;;2.33;;
42066;SDS011;27734;47.028;28.820;2022-10-04T00:03:42;3.60;;;2.67;;
42066;SDS011;27734;47.028;28.820;2022-10-04T00:06:18;2.87;;;2.47;;
42066;SDS011;27734;47.028;28.820;2022-10-04T00:08:52;5.87;;;2.70;;
42066;SDS011;27734;47.028;28.820;2022-10-04T00:11:28;4.53;;;2.53;;
42066;SDS011;27734;47.028;28.820;2022-10-04T00:14:04;7.43;;;2.47;;
42066;SDS011;27734;47.028;28.820;2022-10-04T00:16:38;2.80;;;2.20;;
42066;SDS011;27734;47.028;28.820;2022-10-04T00:19:25;4.10;;;2.50;;
42066;SDS011;27734;47.028;28.820;2022-10-04T00:22:09;3.90;;;2.47;;
42066;SDS011;27734;47.028;28.820;2022-10-04T00:30:56;5.03;;;2.60;;
42066;SDS011;27734;47.028;28.820;2022-10-04T00:33:40;4.40;;;2.50;;
42066;SDS011;27734;47.028;28.820;2022-10-04T00:36:34;4.67;;;2.83;;
42066;SDS011;27734;47.028;28.820;2022-10-04T00:42:16;8.37;;;2.83;;
42066;SDS011;27734;47.028;28.820;2022-10-04T00:44:57;4.97;;;2.90;;
42066;SDS011;27734;47.028;28.820;2022-10-04T00:47:31;5.20;;;2.90;;
42066;SDS011;27734;47.028;28.820;2022-10-04T00:50:25;3.57;;;2.60;;
42066;SDS011;27734;47.028;28.820;2022-10-04T00:53:03;6.60;;;2.80;;
42066;SDS011;27734;47.028;28.820;2022-10-04T00:58:19;5.00;;;2.60;;
42066;SDS011;27734;47.028;28.820;2022-10-04T01:00:55;4.67;;;2.60;;
42066;SDS011;27734;47.028;28.820;2022-10-04T01:03:29;5.27;;;2.80;;
42066;SDS011;27734;47.028;28.820;2022-10-04T01:06:05;5.73;;;2.90;;
42066;SDS011;27734;47.028;28.820;2022-10-04T01:08:40;3.33;;;2.80;;
42066;SDS011;27734;47.028;28.820;2022-10-04T01:11:18;4.90;;;2.83;;
42066;SDS011;27734;47.028;28.820;2022-10-04T01:13:53;3.67;;;2.63;;
42066;SDS011;27734;47.028;28.820;2022-10-04T01:16:30;3.37;;;2.70;;
42066;SDS011;27734;47.028;28.820;2022-10-04T01:21:58;4.87;;;2.67;;
42066;SDS011;27734;47.028;28.820;2022-10-04T01:24:39;9.87;;;3.00;;
42066;SDS011;27734;47.028;28.820;2022-10-04T01:30:10;5.00;;;2.50;;
42066;SDS011;27734;47.028;28.820;2022-10-04T01:32:44;3.03;;;2.50;;
42066;SDS011;27734;47.028;28.820;2022-10-04T01:35:15;5.37;;;2.87;;
42066;SDS011;27734;47.028;28.820;2022-10-04T01:37:47;4.37;;;2.80;;
42066;SDS011;27734;47.028;28.820;2022-10-04T01:40:18;4.37;;;2.50;;
42066;SDS011;27734;47.028;28.820;2022-10-04T01:42:50;5.43;;;2.50;;
42066;SDS011;27734;47.028;28.820;2022-10-04T01:45:28;3.53;;;2.60;;
42066;SDS011;27734;47.028;28.820;2022-10-04T01:48:04;5.30;;;2.80;;
42066;SDS011;27734;47.028;28.820;2022-10-04T01:50:40;6.03;;;2.80;;
42066;SDS011;27734;47.028;28.820;2022-10-04T01:53:17;3.07;;;2.40;;
42066;SDS011;27734;47.028;28.820;2022-10-04T01:55:52;5.50;;;2.70;;
42066;SDS011;27734;47.028;28.820;2022-10-04T01:58:32;5.03;;;2.80;;
42066;SDS011;27734;47.028;28.820;2022-10-04T02:01:12;7.00;;;2.87;;
42066;SDS011;27734;47.028;28.820;2022-10-04T02:03:50;4.60;;;2.73;;
42066;SDS011;27734;47.028;28.820;2022-10-04T02:06:26;5.17;;;2.57;;
42066;SDS011;27734;47.028;28.820;2022-10-04T02:08:58;3.03;;;2.50;;
42066;SDS011;27734;47.028;28.820;2022-10-04T02:11:36;4.55;;;2.65;;
42066;SDS011;27734;47.028;28.820;2022-10-04T02:14:12;4.67;;;2.57;;
42066;SDS011;27734;47.028;28.820;2022-10-04T02:16:46;3.73;;;2.53;;
42066;SDS011;27734;47.028;28.820;2022-10-04T02:19:21;3.20;;;2.60;;
42066;SDS011;27734;47.028;28.820;2022-10-04T02:21:55;3.67;;;2.63;;
42066;SDS011;27734;47.028;28.820;2022-10-04T02:24:29;3.37;;;2.45;;
42066;SDS011;27734;47.028;28.820;2022-10-04T02:27:04;2.70;;;2.20;;
42066;SDS011;27734;47.028;28.820;2022-10-04T02:29:36;3.23;;;2.67;;
42066;SDS011;27734;47.028;28.820;2022-10-04T02:34:59;4.77;;;2.60;;
42066;SDS011;27734;47.028;28.820;2022-10-04T02:37:32;2.80;;;2.50;;
42066;SDS011;27734;47.028;28.820;2022-10-04T02:40:08;5.17;;;2.80;;
42066;SDS011;27734;47.028;28.820;2022-10-04T02:42:43;4.47;;;2.70;;
42066;SDS011;27734;47.028;28.820;2022-10-04T02:45:23;3.17;;;2.57;;
42066;SDS011;27734;47.028;28.820;2022-10-04T02:47:58;5.10;;;2.47;;
42066;SDS011;27734;47.028;28.820;2022-10-04T02:50:34;3.77;;;2.40;;
42066;SDS011;27734;47.028;28.820;2022-10-04T02:53:17;4.10;;;2.60;;
42066;SDS011;27734;47.028;28.820;2022-10-04T02:55:54;5.23;;;2.90;;
42066;SDS011;27734;47.028;28.820;2022-10-04T02:58:26;6.73;;;2.80;;
42066;SDS011;27734;47.028;28.820;2022-10-04T03:00:58;4.70;;;2.80;;
42066;SDS011;27734;47.028;28.820;2022-10-04T03:03:30;3.00;;;2.70;;
42066;SDS011;27734;47.028;28.820;2022-10-04T03:06:06;6.70;;;2.90;;
42066;SDS011;27734;47.028;28.820;2022-10-04T03:08:44;4.90;;;3.00;;
42066;SDS011;27734;47.028;28.820;2022-10-04T03:11:18;3.87;;;2.70;;
42066;SDS011;27734;47.028;28.820;2022-10-04T03:13:53;3.93;;;3.20;;
42066;SDS011;27734;47.028;28.820;2022-10-04T03:16:29;9.17;;;3.00;;
42066;SDS011;27734;47.028;28.820;2022-10-04T03:19:05;5.33;;;3.37;;
42066;SDS011;27734;47.028;28.820;2022-10-04T03:21:41;7.80;;;3.60;;
42066;SDS011;27734;47.028;28.820;2022-10-04T03:24:16;5.70;;;3.20;;
42066;SDS011;27734;47.028;28.820;2022-10-04T03:26:51;6.50;;;3.63;;
42066;SDS011;27734;47.028;28.820;2022-10-04T03:29:23;12.43;;;3.90;;
42066;SDS011;27734;47.028;28.820;2022-10-04T03:31:59;7.80;;;3.27;;
42066;SDS011;27734;47.028;28.820;2022-10-04T03:34:32;6.90;;;3.60;;
42066;SDS011;27734;47.028;28.820;2022-10-04T03:37:07;5.47;;;3.40;;
42066;SDS011;27734;47.028;28.820;2022-10-04T03:39:42;8.60;;;3.93;;
42066;SDS011;27734;47.028;28.820;2022-10-04T03:42:17;5.33;;;3.40;;
42066;SDS011;27734;47.028;28.820;2022-10-04T03:44:52;8.63;;;3.60;;
42066;SDS011;27734;47.028;28.820;2022-10-04T03:47:25;6.85;;;3.52;;
42066;SDS011;27734;47.028;28.820;2022-10-04T03:50:00;6.03;;;3.77;;
42066;SDS011;27734;47.028;28.820;2022-10-04T03:52:35;10.87;;;4.30;;
42066;SDS011;27734;47.028;28.820;2022-10-04T03:55:09;7.70;;;4.00;;
42066;SDS011;27734;47.028;28.820;2022-10-04T03:57:42;11.37;;;5.33;;
42066;SDS011;27734;47.028;28.820;2022-10-04T04:00:15;13.17;;;5.63;;
42066;SDS011;27734;47.028;28.820;2022-10-04T04:02:48;13.43;;;6.43;;
42066;SDS011;27734;47.028;28.820;2022-10-04T04:05:26;14.33;;;7.20;;
42066;SDS011;27734;47.028;28.820;2022-10-04T04:08:02;15.23;;;7.40;;
42066;SDS011;27734;47.028;28.820;2022-10-04T04:10:36;15.93;;;7.67;;
42066;SDS011;27734;47.028;28.820;2022-10-04T04:13:21;12.90;;;6.70;;
42066;SDS011;27734;47.028;28.820;2022-10-04T04:15:56;11.20;;;5.93;;
42066;SDS011;27734;47.028;28.820;2022-10-04T04:18:29;11.03;;;6.12;;
42066;SDS011;27734;47.028;28.820;2022-10-04T04:21:02;11.63;;;5.73;;
42066;SDS011;27734;47.028;28.820;2022-10-04T04:23:36;11.30;;;5.47;;
42066;SDS011;27734;47.028;28.820;2022-10-04T04:26:15;13.03;;;6.20;;
42066;SDS011;27734;47.028;28.820;2022-10-04T04:28:52;11.57;;;5.50;;
42066;SDS011;27734;47.028;28.820;2022-10-04T04:31:32;11.13;;;5.37;;
42066;SDS011;27734;47.028;28.820;2022-10-04T04:34:13;11.03;;;5.87;;
42066;SDS011;27734;47.028;28.820;2022-10-04T04:36:47;15.53;;;5.97;;
42066;SDS011;27734;47.028;28.820;2022-10-04T04:39:19;14.43;;;6.07;;
42066;SDS011;27734;47.028;28.820;2022-10-04T04:42:13;10.83;;;5.23;;
42066;SDS011;27734;47.028;28.820;2022-10-04T04:44:46;12.83;;;5.77;;
42066;SDS011;27734;47.028;28.820;2022-10-04T04:47:28;14.60;;;6.30;;
42066;SDS011;27734;47.028;28.820;2022-10-04T04:50:03;11.47;;;5.63;;
42066;SDS011;27734;47.028;28.820;2022-10-04T04:52:37;10.73;;;5.13;;
42066;SDS011;27734;47.028;28.820;2022-10-04T04:55:15;12.10;;;5.87;;
42066;SDS011;27734;47.028;28.820;2022-10-04T04:57:49;11.67;;;5.30;;
42066;SDS011;27734;47.028;28.820;2022-10-04T05:00:28;10.63;;;5.57;;
42066;SDS011;27734;47.028;28.820;2022-10-04T05:03:03;14.57;;;5.50;;
42066;SDS011;27734;47.028;28.820;2022-10-04T05:05:45;12.73;;;5.83;;
42066;SDS011;27734;47.028;28.820;2022-10-04T05:08:20;12.13;;;5.67;;
42066;SDS011;27734;47.028;28.820;2022-10-04T05:10:57;13.47;;;5.83;;
42066;SDS011;27734;47.028;28.820;2022-10-04T05:13:36;12.17;;;5.03;;
42066;SDS011;27734;47.028;28.820;2022-10-04T05:16:12;12.97;;;5.80;;
42066;SDS011;27734;47.028;28.820;2022-10-04T05:18:48;14.10;;;5.37;;
42066;SDS011;27734;47.028;28.820;2022-10-04T05:21:26;14.57;;;5.80;;
42066;SDS011;27734;47.028;28.820;2022-10-04T05:24:06;13.10;;;5.83;;
42066;SDS011;27734;47.028;28.820;2022-10-04T05:26:41;13.83;;;6.60;;
42066;SDS011;27734;47.028;28.820;2022-10-04T05:29:14;14.20;;;6.03;;
42066;SDS011;27734;47.028;28.820;2022-10-04T05:31:51;17.03;;;5.70;;
42066;SDS011;27734;47.028;28.820;2022-10-04T05:34:36;12.00;;;5.73;;
42066;SDS011;27734;47.028;28.820;2022-10-04T05:39:56;13.30;;;6.27;;
42066;SDS011;27734;47.028;28.820;2022-10-04T05:42:36;12.80;;;5.43;;
42066;SDS011;27734;47.028;28.820;2022-10-04T05:45:15;11.97;;;5.50;;
42066;SDS011;27734;47.028;28.820;2022-10-04T05:47:51;13.53;;;5.50;;
42066;SDS011;27734;47.028;28.820;2022-10-04T05:50:27;11.03;;;5.47;;
42066;SDS011;27734;47.028;28.820;2022-10-04T05:53:15;14.17;;;5.10;;
42066;SDS011;27734;47.028;28.820;2022-10-04T05:55:56;11.47;;;5.00;;
42066;SDS011;27734;47.028;28.820;2022-10-04T05:58:43;15.10;;;5.57;;
42066;SDS011;27734;47.028;28.820;2022-10-04T06:01:32;19.03;;;8.33;;
42066;SDS011;27734;47.028;28.820;2022-10-04T06:04:23;27.47;;;15.73;;
42066;SDS011;27734;47.028;28.820;2022-10-04T06:07:08;25.95;;;11.65;;
42066;SDS011;27734;47.028;28.820;2022-10-04T06:09:58;12.10;;;5.85;;
42066;SDS011;27734;47.028;28.820;2022-10-04T06:12:45;9.80;;;4.47;;
42066;SDS011;27734;47.028;28.820;2022-10-04T06:15:34;16.05;;;4.53;;
42066;SDS011;27734;47.028;28.820;2022-10-04T06:18:30;9.10;;;4.67;;
42066;SDS011;27734;47.028;28.820;2022-10-04T06:21:21;6.60;;;4.40;;
42066;SDS011;27734;47.028;28.820;2022-10-04T06:23:59;7.87;;;4.47;;
42066;SDS011;27734;47.028;28.820;2022-10-04T06:26:40;10.83;;;4.93;;
42066;SDS011;27734;47.028;28.820;2022-10-04T06:29:19;8.20;;;4.10;;
42066;SDS011;27734;47.028;28.820;2022-10-04T06:32:06;8.30;;;4.07;;
42066;SDS011;27734;47.028;28.820;2022-10-04T06:38:03;9.00;;;3.90;;
42066;SDS011;27734;47.028;28.820;2022-10-04T06:40:58;11.83;;;4.13;;
42066;SDS011;27734;47.028;28.820;2022-10-04T06:44:01;10.90;;;4.30;;
42066;SDS011;27734;47.028;28.820;2022-10-04T06:47:02;8.73;;;4.22;;
42066;SDS011;27734;47.028;28.820;2022-10-04T06:49:46;6.80;;;3.97;;
42066;SDS011;27734;47.028;28.820;2022-10-04T06:52:27;11.37;;;4.13;;
42066;SDS011;27734;47.028;28.820;2022-10-04T06:58:16;8.07;;;3.90;;
42066;SDS011;27734;47.028;28.820;2022-10-04T07:01:22;7.70;;;3.97;;
42066;SDS011;27734;47.028;28.820;2022-10-04T07:04:04;7.70;;;3.43;;
42066;SDS011;27734;47.028;28.820;2022-10-04T07:06:50;6.63;;;3.57;;
42066;SDS011;27734;47.028;28.820;2022-10-04T07:09:51;7.47;;;3.03;;
42066;SDS011;27734;47.028;28.820;2022-10-04T07:12:31;9.23;;;3.20;;
42066;SDS011;27734;47.028;28.820;2022-10-04T07:15:12;8.10;;;3.50;;
42066;SDS011;27734;47.028;28.820;2022-10-04T07:18:04;6.60;;;2.93;;
42066;SDS011;27734;47.028;28.820;2022-10-04T07:20:42;7.17;;;3.20;;
42066;SDS011;27734;47.028;28.820;2022-10-04T07:23:29;7.60;;;3.50;;
42066;SDS011;27734;47.028;28.820;2022-10-04T07:26:13;8.33;;;3.50;;
42066;SDS011;27734;47.028;28.820;2022-10-04T07:29:05;4.50;;;3.10;;
42066;SDS011;27734;47.028;28.820;2022-10-04T07:32:14;4.50;;;2.70;;
42066;SDS011;27734;47.028;28.820;2022-10-04T07:34:56;3.97;;;2.60;;
42066;SDS011;27734;47.028;28.820;2022-10-04T07:37:35;5.70;;;2.87;;
42066;SDS011;27734;47.028;28.820;2022-10-04T07:40:20;14.00;;;6.07;;
42066;SDS011;27734;47.028;28.820;2022-10-04T07:42:54;10.60;;;4.70;;
42066;SDS011;27734;47.028;28.820;2022-10-04T07:45:40;14.03;;;6.93;;
42066;SDS011;27734;47.028;28.820;2022-10-04T07:48:21;8.90;;;4.03;;
42066;SDS011;27734;47.028;28.820;2022-10-04T07:50:55;10.70;;;5.10;;
42066;SDS011;27734;47.028;28.820;2022-10-04T07:53:38;7.47;;;3.55;;
42066;SDS011;27734;47.028;28.820;2022-10-04T07:56:21;4.90;;;2.60;;
42066;SDS011;27734;47.028;28.820;2022-10-04T07:59:14;5.67;;;2.67;;
42066;SDS011;27734;47.028;28.820;2022-10-04T08:02:07;4.73;;;2.50;;
42066;SDS011;27734;47.028;28.820;2022-10-04T08:05:05;5.13;;;2.60;;
42066;SDS011;27734;47.028;28.820;2022-10-04T08:08:02;3.70;;;2.60;;
42066;SDS011;27734;47.028;28.820;2022-10-04T08:10:54;4.13;;;2.40;;
42066;SDS011;27734;47.028;28.820;2022-10-04T08:13:44;3.80;;;2.50;;
42066;SDS011;27734;47.028;28.820;2022-10-04T08:16:31;4.57;;;2.90;;
42066;SDS011;27734;47.028;28.820;2022-10-04T08:19:10;4.63;;;2.80;;
42066;SDS011;27734;47.028;28.820;2022-10-04T08:22:20;4.10;;;2.67;;
42066;SDS011;27734;47.028;28.820;2022-10-04T08:27:52;4.47;;;2.53;;
42066;SDS011;27734;47.028;28.820;2022-10-04T08:31:06;4.73;;;2.70;;
42066;SDS011;27734;47.028;28.820;2022-10-04T08:37:03;4.70;;;2.70;;
42066;SDS011;27734;47.028;28.820;2022-10-04T08:47:02;5.43;;;2.63;;
42066;SDS011;27734;47.028;28.820;2022-10-04T08:53:16;4.27;;;2.40;;
42066;SDS011;27734;47.028;28.820;2022-10-04T08:56:11;4.27;;;2.40;;
42066;SDS011;27734;47.028;28.820;2022-10-04T08:59:01;5.37;;;2.60;;
42066;SDS011;27734;47.028;28.820;2022-10-04T09:02:05;2.77;;;2.20;;
42066;SDS011;27734;47.028;28.820;2022-10-04T09:05:14;5.63;;;2.50;;
42066;SDS011;27734;47.028;28.820;2022-10-04T09:12:01;4.33;;;2.23;;
42066;SDS011;27734;47.028;28.820;2022-10-04T09:15:06;4.80;;;2.30;;
42066;SDS011;27734;47.028;28.820;2022-10-04T09:17:54;3.30;;;2.40;;
42066;SDS011;27734;47.028;28.820;2022-10-04T09:20:44;3.20;;;2.27;;
42066;SDS011;27734;47.028;28.820;2022-10-04T09:26:32;2.60;;;2.10;;
42066;SDS011;27734;47.028;28.820;2022-10-04T09:29:22;5.47;;;2.30;;
42066;SDS011;27734;47.028;28.820;2022-10-04T09:32:13;2.40;;;1.87;;
42066;SDS011;27734;47.028;28.820;2022-10-04T09:35:06;3.10;;;2.20;;
42066;SDS011;27734;47.028;28.820;2022-10-04T09:38:09;2.90;;;2.13;;
42066;SDS011;27734;47.028;28.820;2022-10-04T09:41:22;14.53;;;8.53;;
42066;SDS011;27734;47.028;28.820;2022-10-04T09:47:38;9.93;;;4.73;;
42066;SDS011;27734;47.028;28.820;2022-10-04T09:50:35;5.87;;;3.43;;
42066;SDS011;27734;47.028;28.820;2022-10-04T09:53:34;5.67;;;3.30;;
42066;SDS011;27734;47.028;28.820;2022-10-04T09:56:16;2.90;;;2.20;;
42066;SDS011;27734;47.028;28.820;2022-10-04T09:59:08;2.93;;;2.00;;
42066;SDS011;27734;47.028;28.820;2022-10-04T10:05:21;2.77;;;1.87;;
42066;SDS011;27734;47.028;28.820;2022-10-04T10:08:16;3.00;;;2.00;;
42066;SDS011;27734;47.028;28.820;2022-10-04T10:11:04;3.27;;;1.63;;
42066;SDS011;27734;47.028;28.820;2022-10-04T10:14:07;2.87;;;2.13;;
42066;SDS011;27734;47.028;28.820;2022-10-04T10:17:00;2.73;;;2.00;;
42066;SDS011;27734;47.028;28.820;2022-10-04T10:23:23;3.43;;;1.90;;
42066;SDS011;27734;47.028;28.820;2022-10-04T10:26:11;6.17;;;1.93;;
42066;SDS011;27734;47.028;28.820;2022-10-04T10:32:45;2.47;;;1.77;;
42066;SDS011;27734;47.028;28.820;2022-10-04T10:38:28;2.87;;;2.43;;
42066;SDS011;27734;47.028;28.820;2022-10-04T10:44:27;2.93;;;2.23;;
42066;SDS011;27734;47.028;28.820;2022-10-04T10:47:32;4.72;;;2.83;;
42066;SDS011;27734;47.028;28.820;2022-10-04T10:56:56;2.73;;;1.93;;
42066;SDS011;27734;47.028;28.820;2022-10-04T10:59:48;2.43;;;1.90;;
42066;SDS011;27734;47.028;28.820;2022-10-04T11:06:31;4.90;;;2.27;;
42066;SDS011;27734;47.028;28.820;2022-10-04T11:09:31;4.17;;;2.00;;
42066;SDS011;27734;47.028;28.820;2022-10-04T11:12:23;4.87;;;2.43;;
42066;SDS011;27734;47.028;28.820;2022-10-04T11:18:54;3.13;;;2.53;;
42066;SDS011;27734;47.028;28.820;2022-10-04T11:21:55;4.40;;;2.60;;
42066;SDS011;27734;47.028;28.820;2022-10-04T11:28:09;3.50;;;2.53;;
42066;SDS011;27734;47.028;28.820;2022-10-04T11:31:03;2.73;;;2.30;;
42066;SDS011;27734;47.028;28.820;2022-10-04T11:34:15;3.20;;;2.30;;
42066;SDS011;27734;47.028;28.820;2022-10-04T11:40:12;6.33;;;2.60;;
42066;SDS011;27734;47.028;28.820;2022-10-04T11:43:15;4.57;;;2.87;;
42066;SDS011;27734;47.028;28.820;2022-10-04T11:46:14;3.63;;;2.80;;
42066;SDS011;27734;47.028;28.820;2022-10-04T11:49:31;6.00;;;2.90;;
42066;SDS011;27734;47.028;28.820;2022-10-04T11:58:38;4.87;;;2.90;;
42066;SDS011;27734;47.028;28.820;2022-10-04T12:01:50;3.50;;;2.63;;
42066;SDS011;27734;47.028;28.820;2022-10-04T12:07:56;4.83;;;2.77;;
42066;SDS011;27734;47.028;28.820;2022-10-04T12:11:02;4.43;;;3.10;;
42066;SDS011;27734;47.028;28.820;2022-10-04T12:14:22;5.77;;;3.63;;
42066;SDS011;27734;47.028;28.820;2022-10-04T12:20:22;5.17;;;2.90;;
42066;SDS011;27734;47.028;28.820;2022-10-04T12:23:36;5.03;;;3.30;;
42066;SDS011;27734;47.028;28.820;2022-10-04T12:26:45;5.40;;;3.80;;
42066;SDS011;27734;47.028;28.820;2022-10-04T12:29:39;6.33;;;3.70;;
42066;SDS011;27734;47.028;28.820;2022-10-04T12:32:31;6.20;;;3.33;;
42066;SDS011;27734;47.028;28.820;2022-10-04T12:35:18;7.33;;;3.77;;
42066;SDS011;27734;47.028;28.820;2022-10-04T12:41:25;9.67;;;5.50;;
42066;SDS011;27734;47.028;28.820;2022-10-04T12:44:12;8.43;;;4.87;;
42066;SDS011;27734;47.028;28.820;2022-10-04T12:47:09;7.17;;;3.40;;
42066;SDS011;27734;47.028;28.820;2022-10-04T12:50:01;6.77;;;3.13;;
42066;SDS011;27734;47.028;28.820;2022-10-04T12:52:52;6.03;;;3.23;;
42066;SDS011;27734;47.028;28.820;2022-10-04T12:55:45;6.10;;;3.20;;
42066;SDS011;27734;47.028;28.820;2022-10-04T12:58:39;4.43;;;3.20;;
42066;SDS011;27734;47.028;28.820;2022-10-04T13:01:38;4.07;;;2.90;;
42066;SDS011;27734;47.028;28.820;2022-10-04T13:04:44;5.33;;;3.03;;
42066;SDS011;27734;47.028;28.820;2022-10-04T13:10:34;4.23;;;2.57;;
42066;SDS011;27734;47.028;28.820;2022-10-04T13:16:14;4.67;;;2.67;;
42066;SDS011;27734;47.028;28.820;2022-10-04T13:18:56;3.80;;;2.70;;
42066;SDS011;27734;47.028;28.820;2022-10-04T13:24:36;3.20;;;2.80;;
42066;SDS011;27734;47.028;28.820;2022-10-04T13:27:30;3.77;;;2.40;;
42066;SDS011;27734;47.028;28.820;2022-10-04T13:30:18;15.20;;;8.28;;
42066;SDS011;27734;47.028;28.820;2022-10-04T13:33:01;3.17;;;2.80;;
42066;SDS011;27734;47.028;28.820;2022-10-04T13:35:56;4.65;;;2.45;;
42066;SDS011;27734;47.028;28.820;2022-10-04T13:38:49;3.50;;;2.57;;
42066;SDS011;27734;47.028;28.820;2022-10-04T13:41:53;3.73;;;2.27;;
42066;SDS011;27734;47.028;28.820;2022-10-04T13:44:59;3.73;;;2.53;;
42066;SDS011;27734;47.028;28.820;2022-10-04T13:47:55;3.63;;;2.50;;
42066;SDS011;27734;47.028;28.820;2022-10-04T13:53:46;4.73;;;2.53;;
42066;SDS011;27734;47.028;28.820;2022-10-04T13:59:51;3.50;;;2.20;;
42066;SDS011;27734;47.028;28.820;2022-10-04T14:02:46;4.50;;;2.30;;
42066;SDS011;27734;47.028;28.820;2022-10-04T14:05:47;3.10;;;2.30;;
42066;SDS011;27734;47.028;28.820;2022-10-04T14:08:43;2.70;;;2.27;;
42066;SDS011;27734;47.028;28.820;2022-10-04T14:14:41;4.33;;;2.30;;
42066;SDS011;27734;47.028;28.820;2022-10-04T14:30:50;5.10;;;2.30;;
42066;SDS011;27734;47.028;28.820;2022-10-04T14:33:38;4.73;;;2.30;;
42066;SDS011;27734;47.028;28.820;2022-10-04T14:36:29;3.83;;;2.60;;
42066;SDS011;27734;47.028;28.820;2022-10-04T14:42:13;11.13;;;2.50;;
42066;SDS011;27734;47.028;28.820;2022-10-04T14:48:19;3.13;;;2.03;;
42066;SDS011;27734;47.028;28.820;2022-10-04T14:51:12;4.10;;;2.23;;
42066;SDS011;27734;47.028;28.820;2022-10-04T14:53:56;5.83;;;2.63;;
42066;SDS011;27734;47.028;28.820;2022-10-04T14:56:39;4.80;;;1.80;;
42066;SDS011;27734;47.028;28.820;2022-10-04T15:02:31;5.50;;;2.15;;
42066;SDS011;27734;47.028;28.820;2022-10-04T15:05:30;4.00;;;2.40;;
42066;SDS011;27734;47.028;28.820;2022-10-04T15:08:32;8.07;;;2.40;;
42066;SDS011;27734;47.028;28.820;2022-10-04T15:11:15;4.77;;;2.30;;
42066;SDS011;27734;47.028;28.820;2022-10-04T15:14:01;12.30;;;2.30;;
42066;SDS011;27734;47.028;28.820;2022-10-04T15:16:49;4.40;;;2.30;;
42066;SDS011;27734;47.028;28.820;2022-10-04T15:19:27;4.07;;;2.10;;
42066;SDS011;27734;47.028;28.820;2022-10-04T15:22:03;3.60;;;2.00;;
42066;SDS011;27734;47.028;28.820;2022-10-04T15:24:48;4.33;;;2.30;;
42066;SDS011;27734;47.028;28.820;2022-10-04T15:30:22;4.57;;;2.63;;
42066;SDS011;27734;47.028;28.820;2022-10-04T15:33:07;5.53;;;3.00;;
42066;SDS011;27734;47.028;28.820;2022-10-04T15:36:07;6.77;;;2.87;;
42066;SDS011;27734;47.028;28.820;2022-10-04T15:38:51;8.07;;;2.93;;
42066;SDS011;27734;47.028;28.820;2022-10-04T15:41:31;8.15;;;2.90;;
42066;SDS011;27734;47.028;28.820;2022-10-04T15:44:13;6.73;;;3.00;;
42066;SDS011;27734;47.028;28.820;2022-10-04T15:47:06;5.83;;;3.20;;
42066;SDS011;27734;47.028;28.820;2022-10-04T15:49:49;8.20;;;3.30;;
42066;SDS011;27734;47.028;28.820;2022-10-04T15:55:31;6.93;;;3.77;;
42066;SDS011;27734;47.028;28.820;2022-10-04T15:58:29;6.83;;;3.03;;
42066;SDS011;27734;47.028;28.820;2022-10-04T16:01:25;8.57;;;3.13;;
42066;SDS011;27734;47.028;28.820;2022-10-04T16:07:22;12.27;;;3.50;;
42066;SDS011;27734;47.028;28.820;2022-10-04T16:10:16;5.23;;;3.13;;
42066;SDS011;27734;47.028;28.820;2022-10-04T16:13:02;7.83;;;3.57;;
42066;SDS011;27734;47.028;28.820;2022-10-04T16:19:07;7.37;;;3.50;;
42066;SDS011;27734;47.028;28.820;2022-10-04T16:21:51;9.93;;;3.67;;
42066;SDS011;27734;47.028;28.820;2022-10-04T16:24:40;8.73;;;3.30;;
42066;SDS011;27734;47.028;28.820;2022-10-04T16:27:28;9.67;;;4.27;;
42066;SDS011;27734;47.028;28.820;2022-10-04T16:36:06;11.73;;;3.87;;
42066;SDS011;27734;47.028;28.820;2022-10-04T16:38:45;11.93;;;3.87;;
42066;SDS011;27734;47.028;28.820;2022-10-04T16:41:40;12.30;;;4.43;;
42066;SDS011;27734;47.028;28.820;2022-10-04T16:44:26;13.20;;;4.53;;
42066;SDS011;27734;47.028;28.820;2022-10-04T16:47:10;12.53;;;4.57;;
42066;SDS011;27734;47.028;28.820;2022-10-04T16:49:51;10.57;;;4.07;;
42066;SDS011;27734;47.028;28.820;2022-10-04T16:52:29;12.60;;;4.63;;
42066;SDS011;27734;47.028;28.820;2022-10-04T17:01:34;15.57;;;5.77;;
42066;SDS011;27734;47.028;28.820;2022-10-04T17:04:32;15.63;;;6.80;;
42066;SDS011;27734;47.028;28.820;2022-10-04T17:07:33;18.73;;;6.93;;
42066;SDS011;27734;47.028;28.820;2022-10-04T17:10:26;17.73;;;7.50;;
42066;SDS011;27734;47.028;28.820;2022-10-04T17:13:11;18.07;;;7.33;;
42066;SDS011;27734;47.028;28.820;2022-10-04T17:15:56;20.30;;;8.00;;
42066;SDS011;27734;47.028;28.820;2022-10-04T17:18:37;19.33;;;7.63;;
42066;SDS011;27734;47.028;28.820;2022-10-04T17:21:22;21.53;;;7.90;;
42066;SDS011;27734;47.028;28.820;2022-10-04T17:24:03;20.03;;;7.53;;
42066;SDS011;27734;47.028;28.820;2022-10-04T17:26:54;16.83;;;6.80;;
42066;SDS011;27734;47.028;28.820;2022-10-04T17:29:37;19.17;;;7.73;;
42066;SDS011;27734;47.028;28.820;2022-10-04T17:32:21;15.93;;;6.60;;
42066;SDS011;27734;47.028;28.820;2022-10-04T17:35:03;16.90;;;6.60;;
42066;SDS011;27734;47.028;28.820;2022-10-04T17:37:46;18.73;;;6.20;;
42066;SDS011;27734;47.028;28.820;2022-10-04T17:40:28;17.70;;;6.00;;
42066;SDS011;27734;47.028;28.820;2022-10-04T17:43:14;14.30;;;6.40;;
42066;SDS011;27734;47.028;28.820;2022-10-04T17:45:56;14.97;;;5.83;;
42066;SDS011;27734;47.028;28.820;2022-10-04T17:48:43;16.13;;;6.60;;
42066;SDS011;27734;47.028;28.820;2022-10-04T17:51:41;16.63;;;5.70;;
42066;SDS011;27734;47.028;28.820;2022-10-04T17:54:37;18.87;;;7.00;;
42066;SDS011;27734;47.028;28.820;2022-10-04T17:57:36;15.30;;;6.47;;
42066;SDS011;27734;47.028;28.820;2022-10-04T18:00:12;13.87;;;6.00;;
42066;SDS011;27734;47.028;28.820;2022-10-04T18:05:27;17.27;;;5.73;;
42066;SDS011;27734;47.028;28.820;2022-10-04T18:08:03;14.93;;;5.20;;
42066;SDS011;27734;47.028;28.820;2022-10-04T18:10:46;7.37;;;4.07;;
42066;SDS011;27734;47.028;28.820;2022-10-04T18:13:25;10.65;;;4.20;;
42066;SDS011;27734;47.028;28.820;2022-10-04T18:16:02;8.53;;;3.30;;
42066;SDS011;27734;47.028;28.820;2022-10-04T18:18:43;9.87;;;4.40;;
42066;SDS011;27734;47.028;28.820;2022-10-04T18:21:20;7.47;;;3.30;;
42066;SDS011;27734;47.028;28.820;2022-10-04T18:23:56;7.87;;;3.50;;
42066;SDS011;27734;47.028;28.820;2022-10-04T18:26:30;5.40;;;3.37;;
42066;SDS011;27734;47.028;28.820;2022-10-04T18:29:03;7.50;;;3.90;;
42066;SDS011;27734;47.028;28.820;2022-10-04T18:31:40;11.53;;;4.90;;
42066;SDS011;27734;47.028;28.820;2022-10-04T18:34:16;12.43;;;4.77;;
42066;SDS011;27734;47.028;28.820;2022-10-04T18:37:02;13.23;;;5.50;;
42066;SDS011;27734;47.028;28.820;2022-10-04T18:39:45;11.27;;;4.83;;
42066;SDS011;27734;47.028;28.820;2022-10-04T18:42:19;15.37;;;6.03;;
42066;SDS011;27734;47.028;28.820;2022-10-04T18:44:56;15.37;;;5.83;;
42066;SDS011;27734;47.028;28.820;2022-10-04T18:50:04;16.23;;;6.30;;
42066;SDS011;27734;47.028;28.820;2022-10-04T18:52:49;17.00;;;6.57;;
42066;SDS011;27734;47.028;28.820;2022-10-04T18:58:11;14.17;;;5.40;;
42066;SDS011;27734;47.028;28.820;2022-10-04T19:01:16;13.93;;;5.80;;
42066;SDS011;27734;47.028;28.820;2022-10-04T19:04:16;13.90;;;5.80;;
42066;SDS011;27734;47.028;28.820;2022-10-04T19:06:52;15.10;;;6.40;;
42066;SDS011;27734;47.028;28.820;2022-10-04T19:09:32;15.60;;;6.03;;
42066;SDS011;27734;47.028;28.820;2022-10-04T19:12:37;12.00;;;5.77;;
42066;SDS011;27734;47.028;28.820;2022-10-04T19:15:21;13.50;;;5.30;;
42066;SDS011;27734;47.028;28.820;2022-10-04T19:18:12;14.90;;;6.37;;